sensor_id;sensor_type;location;lat;lon;timestamp;temperature;humidity
14057;DHT22;7103;54.300;10.180;2022-07-26T00:00:13;18.10;1.00
14057;DHT22;7103;54.300;10.180;2022-07-26T03:54:52;17.30;1.00
14057;DHT22;7103;54.300;10.180;2022-07-26T03:57:22;17.30;1.00
14057;DHT22;7103;54.300;10.180;2022-07-26T03:59:55;17.40;1.00
14057;DHT22;7103;54.300;10.180;2022-07-26T04:02:27;17.40;1.00
14057;DHT22;7103;54.300;10.180;2022-07-26T04:05:00;17.40;1.00
14057;DHT22;7103;54.300;10.180;2022-07-26T04:07:30;17.30;1.00
14057;DHT22;7103;54.300;10.180;2022-07-26T04:10:03;17.40;1.00
14057;DHT22;7103;54.300;10.180;2022-07-26T04:12:32;17.50;1.00
14057;DHT22;7103;54.300;10.180;2022-07-26T04:15:03;17.40;1.00
14057;DHT22;7103;54.300;10.180;2022-07-26T04:17:50;17.50;1.00
14057;DHT22;7103;54.300;10.180;2022-07-26T04:20:20;17.40;1.00
14057;DHT22;7103;54.300;10.180;2022-07-26T04:22:49;17.40;1.00
14057;DHT22;7103;54.300;10.180;2022-07-26T04:25:19;17.40;1.00
14057;DHT22;7103;54.300;10.180;2022-07-26T04:27:52;17.50;1.00
14057;DHT22;7103;54.300;10.180;2022-07-26T04:30:20;17.40;1.00
14057;DHT22;7103;54.300;10.180;2022-07-26T04:32:58;17.40;1.00
14057;DHT22;7103;54.300;10.180;2022-07-26T04:35:27;17.50;1.00
14057;DHT22;7103;54.300;10.180;2022-07-26T04:37:55;17.50;1.00
14057;DHT22;7103;54.300;10.180;2022-07-26T04:40:25;17.50;1.00
14057;DHT22;7103;54.300;10.180;2022-07-26T04:42:55;17.50;1.00
14057;DHT22;7103;54.300;10.180;2022-07-26T04:45:24;17.50;1.00
14057;DHT22;7103;54.300;10.180;2022-07-26T04:47:53;17.50;1.00
14057;DHT22;7103;54.300;10.180;2022-07-26T04:50:24;17.70;1.00
14057;DHT22;7103;54.300;10.180;2022-07-26T04:52:52;17.80;1.00
14057;DHT22;7103;54.300;10.180;2022-07-26T04:55:19;17.90;1.00
14057;DHT22;7103;54.300;10.180;2022-07-26T04:57:48;17.90;1.00
14057;DHT22;7103;54.300;10.180;2022-07-26T05:00:19;18.00;1.00
14057;DHT22;7103;54.300;10.180;2022-07-26T05:02:55;18.00;1.00
14057;DHT22;7103;54.300;10.180;2022-07-26T05:05:24;18.00;1.00
14057;DHT22;7103;54.300;10.180;2022-07-26T05:07:54;17.90;1.00
14057;DHT22;7103;54.300;10.180;2022-07-26T05:10:26;17.90;1.00
14057;DHT22;7103;54.300;10.180;2022-07-26T05:12:53;17.90;1.00
14057;DHT22;7103;54.300;10.180;2022-07-26T05:15:20;18.00;1.00
14057;DHT22;7103;54.300;10.180;2022-07-26T05:17:48;18.00;1.00
14057;DHT22;7103;54.300;10.180;2022-07-26T05:20:15;18.10;1.00
14057;DHT22;7103;54.300;10.180;2022-07-26T05:22:43;18.10;1.00
14057;DHT22;7103;54.300;10.180;2022-07-26T05:25:10;18.10;1.00
14057;DHT22;7103;54.300;10.180;2022-07-26T05:27:37;18.10;1.00
14057;DHT22;7103;54.300;10.180;2022-07-26T05:30:07;18.00;1.00
14057;DHT22;7103;54.300;10.180;2022-07-26T05:32:35;18.00;1.00
14057;DHT22;7103;54.300;10.180;2022-07-26T05:35:03;18.00;1.00
14057;DHT22;7103;54.300;10.180;2022-07-26T05:37:30;18.00;1.00
14057;DHT22;7103;54.300;10.180;2022-07-26T05:39:57;18.10;1.00
14057;DHT22;7103;54.300;10.180;2022-07-26T05:42:24;18.10;1.00
14057;DHT22;7103;54.300;10.180;2022-07-26T05:44:51;18.00;1.00
14057;DHT22;7103;54.300;10.180;2022-07-26T05:47:21;17.90;1.00
14057;DHT22;7103;54.300;10.180;2022-07-26T05:49:48;17.80;1.00
14057;DHT22;7103;54.300;10.180;2022-07-26T05:52:16;17.80;1.00
14057;DHT22;7103;54.300;10.180;2022-07-26T05:54:43;17.80;1.00
14057;DHT22;7103;54.300;10.180;2022-07-26T05:57:10;17.60;1.00
14057;DHT22;7103;54.300;10.180;2022-07-26T05:59:37;17.60;1.00
14057;DHT22;7103;54.300;10.180;2022-07-26T06:02:03;17.70;1.00
14057;DHT22;7103;54.300;10.180;2022-07-26T06:04:31;17.80;1.00
14057;DHT22;7103;54.300;10.180;2022-07-26T06:06:58;17.70;1.00
14057;DHT22;7103;54.300;10.180;2022-07-26T06:09:25;17.70;1.00
14057;DHT22;7103;54.300;10.180;2022-07-26T06:11:52;17.70;1.00
14057;DHT22;7103;54.300;10.180;2022-07-26T06:14:20;17.80;1.00
14057;DHT22;7103;54.300;10.180;2022-07-26T06:16:47;17.80;1.00
14057;DHT22;7103;54.300;10.180;2022-07-26T06:19:15;17.80;1.00
14057;DHT22;7103;54.300;10.180;2022-07-26T06:21:42;17.90;1.00
14057;DHT22;7103;54.300;10.180;2022-07-26T06:24:11;17.80;1.00
14057;DHT22;7103;54.300;10.180;2022-07-26T06:26:38;18.00;1.00
14057;DHT22;7103;54.300;10.180;2022-07-26T06:29:05;18.00;1.00
14057;DHT22;7103;54.300;10.180;2022-07-26T06:31:33;18.00;1.00
14057;DHT22;7103;54.300;10.180;2022-07-26T06:34:00;18.00;1.00
14057;DHT22;7103;54.300;10.180;2022-07-26T06:36:27;18.10;1.00
14057;DHT22;7103;54.300;10.180;2022-07-26T06:38:57;18.20;1.00
14057;DHT22;7103;54.300;10.180;2022-07-26T06:41:24;18.30;1.00
14057;DHT22;7103;54.300;10.180;2022-07-26T06:43:51;18.20;1.00
14057;DHT22;7103;54.300;10.180;2022-07-26T06:46:18;18.30;1.00
14057;DHT22;7103;54.300;10.180;2022-07-26T06:48:47;18.40;1.00
14057;DHT22;7103;54.300;10.180;2022-07-26T06:51:22;18.70;1.00
14057;DHT22;7103;54.300;10.180;2022-07-26T06:53:49;18.80;1.00
14057;DHT22;7103;54.300;10.180;2022-07-26T06:56:17;18.90;1.00
14057;DHT22;7103;54.300;10.180;2022-07-26T06:58:45;19.00;1.00
14057;DHT22;7103;54.300;10.180;2022-07-26T07:01:12;19.00;1.00
14057;DHT22;7103;54.300;10.180;2022-07-26T07:03:59;18.90;1.00
14057;DHT22;7103;54.300;10.180;2022-07-26T07:06:26;18.90;1.00
14057;DHT22;7103;54.300;10.180;2022-07-26T07:08:53;18.80;1.00
14057;DHT22;7103;54.300;10.180;2022-07-26T07:11:20;18.90;1.00
14057;DHT22;7103;54.300;10.180;2022-07-26T07:13:48;18.80;1.00
14057;DHT22;7103;54.300;10.180;2022-07-26T07:16:15;18.60;1.00
14057;DHT22;7103;54.300;10.180;2022-07-26T07:18:42;18.40;1.00
14057;DHT22;7103;54.300;10.180;2022-07-26T07:21:09;18.10;1.00
14057;DHT22;7103;54.300;10.180;2022-07-26T07:23:36;17.80;1.00
14057;DHT22;7103;54.300;10.180;2022-07-26T07:26:03;17.40;1.00
14057;DHT22;7103;54.300;10.180;2022-07-26T07:28:30;17.30;1.00
14057;DHT22;7103;54.300;10.180;2022-07-26T07:31:00;17.30;1.00
14057;DHT22;7103;54.300;10.180;2022-07-26T07:33:29;17.30;1.00
14057;DHT22;7103;54.300;10.180;2022-07-26T07:36:16;17.50;1.00
14057;DHT22;7103;54.300;10.180;2022-07-26T07:38:44;17.80;1.00
14057;DHT22;7103;54.300;10.180;2022-07-26T07:41:11;18.10;1.00
14057;DHT22;7103;54.300;10.180;2022-07-26T07:43:38;18.70;1.00
14057;DHT22;7103;54.300;10.180;2022-07-26T07:46:05;18.80;1.00
14057;DHT22;7103;54.300;10.180;2022-07-26T07:48:32;18.70;1.00
14057;DHT22;7103;54.300;10.180;2022-07-26T07:50:59;19.30;1.00
14057;DHT22;7103;54.300;10.180;2022-07-26T07:53:26;20.40;1.00
14057;DHT22;7103;54.300;10.180;2022-07-26T07:55:56;21.20;1.00
14057;DHT22;7103;54.300;10.180;2022-07-26T07:58:25;21.50;1.00
14057;DHT22;7103;54.300;10.180;2022-07-26T08:00:54;21.20;1.00
14057;DHT22;7103;54.300;10.180;2022-07-26T08:03:21;20.80;1.00
14057;DHT22;7103;54.300;10.180;2022-07-26T08:05:50;20.40;1.00
14057;DHT22;7103;54.300;10.180;2022-07-26T08:08:18;20.00;1.00
14057;DHT22;7103;54.300;10.180;2022-07-26T08:10:49;19.50;1.00
14057;DHT22;7103;54.300;10.180;2022-07-26T08:13:20;19.10;1.00
14057;DHT22;7103;54.300;10.180;2022-07-26T08:15:52;18.70;1.00
14057;DHT22;7103;54.300;10.180;2022-07-26T08:18:22;18.70;1.00
14057;DHT22;7103;54.300;10.180;2022-07-26T08:20:51;18.70;1.00
14057;DHT22;7103;54.300;10.180;2022-07-26T08:23:19;18.80;1.00
14057;DHT22;7103;54.300;10.180;2022-07-26T08:25:47;18.90;1.00
14057;DHT22;7103;54.300;10.180;2022-07-26T08:28:26;19.10;1.00
14057;DHT22;7103;54.300;10.180;2022-07-26T08:31:13;19.20;1.00
14057;DHT22;7103;54.300;10.180;2022-07-26T08:33:40;19.20;1.00
14057;DHT22;7103;54.300;10.180;2022-07-26T08:36:14;19.40;1.00
14057;DHT22;7103;54.300;10.180;2022-07-26T08:38:41;19.50;1.00
14057;DHT22;7103;54.300;10.180;2022-07-26T08:41:09;19.50;1.00
14057;DHT22;7103;54.300;10.180;2022-07-26T08:43:36;19.20;1.00
14057;DHT22;7103;54.300;10.180;2022-07-26T08:46:23;19.20;1.00
14057;DHT22;7103;54.300;10.180;2022-07-26T08:48:54;20.00;1.00
14057;DHT22;7103;54.300;10.180;2022-07-26T08:51:23;20.60;1.00
14057;DHT22;7103;54.300;10.180;2022-07-26T08:53:54;20.70;1.00
14057;DHT22;7103;54.300;10.180;2022-07-26T08:56:31;20.80;1.00
14057;DHT22;7103;54.300;10.180;2022-07-26T08:59:02;20.90;1.00
14057;DHT22;7103;54.300;10.180;2022-07-26T09:01:30;21.00;1.00
14057;DHT22;7103;54.300;10.180;2022-07-26T09:04:16;21.00;1.00
14057;DHT22;7103;54.300;10.180;2022-07-26T09:07:09;21.40;1.00
14057;DHT22;7103;54.300;10.180;2022-07-26T09:12:23;22.60;1.00
14057;DHT22;7103;54.300;10.180;2022-07-26T09:14:51;22.90;1.00
14057;DHT22;7103;54.300;10.180;2022-07-26T09:17:21;23.20;1.00
14057;DHT22;7103;54.300;10.180;2022-07-26T09:20:12;23.80;1.00
14057;DHT22;7103;54.300;10.180;2022-07-26T09:25:38;24.10;1.00
14057;DHT22;7103;54.300;10.180;2022-07-26T09:28:30;23.50;1.00
14057;DHT22;7103;54.300;10.180;2022-07-26T09:31:03;22.60;1.00
14057;DHT22;7103;54.300;10.180;2022-07-26T09:33:44;22.00;1.00
14057;DHT22;7103;54.300;10.180;2022-07-26T09:36:11;21.70;1.00
14057;DHT22;7103;54.300;10.180;2022-07-26T09:38:44;21.80;1.00
14057;DHT22;7103;54.300;10.180;2022-07-26T09:41:35;22.00;1.00
14057;DHT22;7103;54.300;10.180;2022-07-26T09:44:06;21.70;1.00
14057;DHT22;7103;54.300;10.180;2022-07-26T09:46:57;21.70;1.00
14057;DHT22;7103;54.300;10.180;2022-07-26T09:49:25;21.60;1.00
14057;DHT22;7103;54.300;10.180;2022-07-26T09:52:17;21.60;1.00
14057;DHT22;7103;54.300;10.180;2022-07-26T09:54:45;21.50;1.00
14057;DHT22;7103;54.300;10.180;2022-07-26T09:57:16;21.60;1.00
14057;DHT22;7103;54.300;10.180;2022-07-26T09:59:44;21.80;1.00
14057;DHT22;7103;54.300;10.180;2022-07-26T10:02:12;21.40;1.00
14057;DHT22;7103;54.300;10.180;2022-07-26T10:04:40;21.70;1.00
14057;DHT22;7103;54.300;10.180;2022-07-26T10:07:11;22.50;1.00
14057;DHT22;7103;54.300;10.180;2022-07-26T10:09:47;23.30;1.00
14057;DHT22;7103;54.300;10.180;2022-07-26T10:12:16;23.70;1.00
14057;DHT22;7103;54.300;10.180;2022-07-26T10:14:44;23.90;1.00
14057;DHT22;7103;54.300;10.180;2022-07-26T10:20:04;24.50;1.00
14057;DHT22;7103;54.300;10.180;2022-07-26T10:22:45;25.20;1.00
14057;DHT22;7103;54.300;10.180;2022-07-26T10:27:44;25.00;1.00
14057;DHT22;7103;54.300;10.180;2022-07-26T10:35:40;23.10;1.00
14057;DHT22;7103;54.300;10.180;2022-07-26T10:40:59;23.30;1.00
14057;DHT22;7103;54.300;10.180;2022-07-26T10:43:27;23.90;1.00
14057;DHT22;7103;54.300;10.180;2022-07-26T10:49:01;24.50;1.00
14057;DHT22;7103;54.300;10.180;2022-07-26T10:51:40;24.40;1.00
14057;DHT22;7103;54.300;10.180;2022-07-26T10:54:08;24.60;1.00
14057;DHT22;7103;54.300;10.180;2022-07-26T10:56:37;24.80;1.00
14057;DHT22;7103;54.300;10.180;2022-07-26T10:59:05;24.60;1.00
14057;DHT22;7103;54.300;10.180;2022-07-26T11:01:37;24.10;1.00
14057;DHT22;7103;54.300;10.180;2022-07-26T11:04:24;23.60;1.00
14057;DHT22;7103;54.300;10.180;2022-07-26T11:06:51;22.90;1.00
14057;DHT22;7103;54.300;10.180;2022-07-26T11:09:18;22.70;1.00
14057;DHT22;7103;54.300;10.180;2022-07-26T11:11:47;22.90;1.00
14057;DHT22;7103;54.300;10.180;2022-07-26T11:14:15;23.20;1.00
14057;DHT22;7103;54.300;10.180;2022-07-26T11:16:47;22.80;1.00
14057;DHT22;7103;54.300;10.180;2022-07-26T11:19:18;22.40;1.00
14057;DHT22;7103;54.300;10.180;2022-07-26T11:21:53;22.00;1.00
14057;DHT22;7103;54.300;10.180;2022-07-26T11:24:20;22.40;1.00
14057;DHT22;7103;54.300;10.180;2022-07-26T11:26:47;23.10;1.00
14057;DHT22;7103;54.300;10.180;2022-07-26T11:29:28;23.30;1.00
14057;DHT22;7103;54.300;10.180;2022-07-26T11:32:20;23.30;1.00
14057;DHT22;7103;54.300;10.180;2022-07-26T11:35:02;23.80;1.00
14057;DHT22;7103;54.300;10.180;2022-07-26T11:37:30;24.00;1.00
14057;DHT22;7103;54.300;10.180;2022-07-26T11:39:57;24.10;1.00
14057;DHT22;7103;54.300;10.180;2022-07-26T11:42:24;24.10;1.00
14057;DHT22;7103;54.300;10.180;2022-07-26T11:44:51;24.50;1.00
14057;DHT22;7103;54.300;10.180;2022-07-26T11:47:22;25.00;1.00
14057;DHT22;7103;54.300;10.180;2022-07-26T11:49:52;24.80;1.00
14057;DHT22;7103;54.300;10.180;2022-07-26T11:52:39;24.50;1.00
14057;DHT22;7103;54.300;10.180;2022-07-26T11:55:07;24.00;1.00
14057;DHT22;7103;54.300;10.180;2022-07-26T11:57:34;23.90;1.00
14057;DHT22;7103;54.300;10.180;2022-07-26T12:00:02;24.10;1.00
14057;DHT22;7103;54.300;10.180;2022-07-26T12:02:30;24.50;1.00
14057;DHT22;7103;54.300;10.180;2022-07-26T12:05:18;24.80;1.00
14057;DHT22;7103;54.300;10.180;2022-07-26T12:08:12;24.80;1.00
14057;DHT22;7103;54.300;10.180;2022-07-26T12:10:39;24.90;1.00
14057;DHT22;7103;54.300;10.180;2022-07-26T12:13:11;24.70;1.00
14057;DHT22;7103;54.300;10.180;2022-07-26T12:15:49;24.80;1.00
14057;DHT22;7103;54.300;10.180;2022-07-26T12:18:28;25.10;1.00
14057;DHT22;7103;54.300;10.180;2022-07-26T12:23:46;25.10;1.00
14057;DHT22;7103;54.300;10.180;2022-07-26T12:26:28;24.90;1.00
14057;DHT22;7103;54.300;10.180;2022-07-26T12:28:57;24.60;1.00
14057;DHT22;7103;54.300;10.180;2022-07-26T12:31:29;24.00;1.00
14057;DHT22;7103;54.300;10.180;2022-07-26T12:33:57;23.50;1.00
14057;DHT22;7103;54.300;10.180;2022-07-26T12:36:24;23.40;1.00
14057;DHT22;7103;54.300;10.180;2022-07-26T12:38:58;23.60;1.00
14057;DHT22;7103;54.300;10.180;2022-07-26T12:41:36;23.60;1.00
14057;DHT22;7103;54.300;10.180;2022-07-26T12:44:05;23.40;1.00
14057;DHT22;7103;54.300;10.180;2022-07-26T12:46:33;23.10;1.00
14057;DHT22;7103;54.300;10.180;2022-07-26T12:49:01;23.00;1.00
14057;DHT22;7103;54.300;10.180;2022-07-26T12:51:29;22.70;1.00
14057;DHT22;7103;54.300;10.180;2022-07-26T12:53:56;22.30;1.00
14057;DHT22;7103;54.300;10.180;2022-07-26T12:56:23;22.50;1.00
14057;DHT22;7103;54.300;10.180;2022-07-26T12:58:50;22.50;1.00
14057;DHT22;7103;54.300;10.180;2022-07-26T13:01:18;22.50;1.00
14057;DHT22;7103;54.300;10.180;2022-07-26T13:03:45;22.60;1.00
14057;DHT22;7103;54.300;10.180;2022-07-26T13:06:12;22.70;1.00
14057;DHT22;7103;54.300;10.180;2022-07-26T13:08:39;22.60;1.00
14057;DHT22;7103;54.300;10.180;2022-07-26T13:11:06;22.50;1.00
14057;DHT22;7103;54.300;10.180;2022-07-26T13:13:33;22.70;1.00
14057;DHT22;7103;54.300;10.180;2022-07-26T13:16:00;22.90;1.00
14057;DHT22;7103;54.300;10.180;2022-07-26T13:18:27;22.80;1.00
14057;DHT22;7103;54.300;10.180;2022-07-26T13:20:55;22.60;1.00
14057;DHT22;7103;54.300;10.180;2022-07-26T13:23:22;22.20;1.00
14057;DHT22;7103;54.300;10.180;2022-07-26T13:25:52;22.20;1.00
14057;DHT22;7103;54.300;10.180;2022-07-26T13:28:20;22.10;1.00
14057;DHT22;7103;54.300;10.180;2022-07-26T13:30:47;21.80;1.00
14057;DHT22;7103;54.300;10.180;2022-07-26T13:33:14;21.50;1.00
14057;DHT22;7103;54.300;10.180;2022-07-26T13:35:42;21.40;1.00
14057;DHT22;7103;54.300;10.180;2022-07-26T13:38:09;21.60;1.00
14057;DHT22;7103;54.300;10.180;2022-07-26T13:40:36;21.80;1.00
14057;DHT22;7103;54.300;10.180;2022-07-26T13:43:04;22.00;1.00
14057;DHT22;7103;54.300;10.180;2022-07-26T13:45:31;22.20;1.00
14057;DHT22;7103;54.300;10.180;2022-07-26T13:47:58;22.20;1.00
14057;DHT22;7103;54.300;10.180;2022-07-26T13:50:28;22.20;1.00
14057;DHT22;7103;54.300;10.180;2022-07-26T13:52:55;22.30;1.00
14057;DHT22;7103;54.300;10.180;2022-07-26T13:55:23;22.20;1.00
14057;DHT22;7103;54.300;10.180;2022-07-26T13:57:51;22.00;1.00
14057;DHT22;7103;54.300;10.180;2022-07-26T14:00:25;21.60;1.00
14057;DHT22;7103;54.300;10.180;2022-07-26T14:02:53;21.10;1.00
14057;DHT22;7103;54.300;10.180;2022-07-26T14:05:20;21.30;1.00
14057;DHT22;7103;54.300;10.180;2022-07-26T14:07:48;21.30;1.00
14057;DHT22;7103;54.300;10.180;2022-07-26T14:10:21;21.50;1.00
14057;DHT22;7103;54.300;10.180;2022-07-26T14:12:51;21.60;1.00
14057;DHT22;7103;54.300;10.180;2022-07-26T14:15:18;21.70;1.00
14057;DHT22;7103;54.300;10.180;2022-07-26T14:17:52;21.70;1.00
14057;DHT22;7103;54.300;10.180;2022-07-26T14:20:19;21.50;1.00
14057;DHT22;7103;54.300;10.180;2022-07-26T14:22:47;21.60;1.00
14057;DHT22;7103;54.300;10.180;2022-07-26T14:25:15;21.40;1.00
14057;DHT22;7103;54.300;10.180;2022-07-26T14:27:41;21.10;1.00
14057;DHT22;7103;54.300;10.180;2022-07-26T14:30:09;21.10;1.00
14057;DHT22;7103;54.300;10.180;2022-07-26T14:32:36;21.40;1.00
14057;DHT22;7103;54.300;10.180;2022-07-26T14:35:04;21.40;1.00
14057;DHT22;7103;54.300;10.180;2022-07-26T14:37:31;21.20;1.00
14057;DHT22;7103;54.300;10.180;2022-07-26T14:40:11;21.40;1.00
14057;DHT22;7103;54.300;10.180;2022-07-26T14:42:38;21.20;1.00
14057;DHT22;7103;54.300;10.180;2022-07-26T14:45:07;21.10;1.00
14057;DHT22;7103;54.300;10.180;2022-07-26T14:47:35;20.90;1.00
14057;DHT22;7103;54.300;10.180;2022-07-26T14:50:02;21.00;1.00
14057;DHT22;7103;54.300;10.180;2022-07-26T14:52:40;21.20;1.00
14057;DHT22;7103;54.300;10.180;2022-07-26T14:55:08;21.00;1.00
14057;DHT22;7103;54.300;10.180;2022-07-26T14:57:35;20.70;1.00
14057;DHT22;7103;54.300;10.180;2022-07-26T15:00:08;20.70;1.00
14057;DHT22;7103;54.300;10.180;2022-07-26T15:02:44;20.80;1.00
14057;DHT22;7103;54.300;10.180;2022-07-26T15:05:13;20.80;1.00
14057;DHT22;7103;54.300;10.180;2022-07-26T15:07:41;21.20;1.00
14057;DHT22;7103;54.300;10.180;2022-07-26T15:10:11;21.30;1.00
14057;DHT22;7103;54.300;10.180;2022-07-26T15:12:38;21.20;1.00
14057;DHT22;7103;54.300;10.180;2022-07-26T15:15:06;21.10;1.00
14057;DHT22;7103;54.300;10.180;2022-07-26T15:17:34;21.00;1.00
14057;DHT22;7103;54.300;10.180;2022-07-26T15:20:03;20.50;1.00
14057;DHT22;7103;54.300;10.180;2022-07-26T15:22:30;20.40;1.00
14057;DHT22;7103;54.300;10.180;2022-07-26T15:24:58;20.10;1.00
14057;DHT22;7103;54.300;10.180;2022-07-26T15:27:25;20.10;1.00
14057;DHT22;7103;54.300;10.180;2022-07-26T15:29:52;20.30;1.00
14057;DHT22;7103;54.300;10.180;2022-07-26T15:32:19;20.30;1.00
14057;DHT22;7103;54.300;10.180;2022-07-26T15:34:47;20.50;1.00
14057;DHT22;7103;54.300;10.180;2022-07-26T15:37:14;20.70;1.00
14057;DHT22;7103;54.300;10.180;2022-07-26T15:39:41;20.70;1.00
14057;DHT22;7103;54.300;10.180;2022-07-26T15:42:08;20.30;1.00
14057;DHT22;7103;54.300;10.180;2022-07-26T15:44:37;20.30;1.00
14057;DHT22;7103;54.300;10.180;2022-07-26T15:47:07;19.80;1.00
14057;DHT22;7103;54.300;10.180;2022-07-26T15:49:35;19.90;1.00
14057;DHT22;7103;54.300;10.180;2022-07-26T15:52:09;20.10;1.00
14057;DHT22;7103;54.300;10.180;2022-07-26T15:54:36;19.90;1.00
14057;DHT22;7103;54.300;10.180;2022-07-26T15:57:03;19.90;1.00
14057;DHT22;7103;54.300;10.180;2022-07-26T15:59:30;20.00;1.00
14057;DHT22;7103;54.300;10.180;2022-07-26T16:01:57;20.00;1.00
14057;DHT22;7103;54.300;10.180;2022-07-26T16:04:24;20.20;1.00
14057;DHT22;7103;54.300;10.180;2022-07-26T16:06:51;20.10;1.00
14057;DHT22;7103;54.300;10.180;2022-07-26T16:09:18;19.80;1.00
14057;DHT22;7103;54.300;10.180;2022-07-26T16:11:47;19.70;1.00
14057;DHT22;7103;54.300;10.180;2022-07-26T16:14:14;19.70;1.00
14057;DHT22;7103;54.300;10.180;2022-07-26T16:16:42;19.80;1.00
14057;DHT22;7103;54.300;10.180;2022-07-26T16:19:09;19.70;1.00
14057;DHT22;7103;54.300;10.180;2022-07-26T16:21:43;19.70;1.00
14057;DHT22;7103;54.300;10.180;2022-07-26T16:24:10;19.80;1.00
14057;DHT22;7103;54.300;10.180;2022-07-26T16:26:37;19.80;1.00
14057;DHT22;7103;54.300;10.180;2022-07-26T16:29:04;19.90;1.00
14057;DHT22;7103;54.300;10.180;2022-07-26T16:31:31;20.00;1.00
14057;DHT22;7103;54.300;10.180;2022-07-26T16:33:59;19.90;1.00
14057;DHT22;7103;54.300;10.180;2022-07-26T16:36:27;19.70;1.00
14057;DHT22;7103;54.300;10.180;2022-07-26T16:38:54;19.60;1.00
14057;DHT22;7103;54.300;10.180;2022-07-26T16:41:21;19.50;1.00
14057;DHT22;7103;54.300;10.180;2022-07-26T16:43:48;19.40;1.00
14057;DHT22;7103;54.300;10.180;2022-07-26T16:46:15;19.30;1.00
14057;DHT22;7103;54.300;10.180;2022-07-26T16:48:43;19.30;1.00
14057;DHT22;7103;54.300;10.180;2022-07-26T16:51:10;19.70;1.00
14057;DHT22;7103;54.300;10.180;2022-07-26T16:53:39;19.20;1.00
14057;DHT22;7103;54.300;10.180;2022-07-26T16:56:06;19.20;1.00
14057;DHT22;7103;54.300;10.180;2022-07-26T17:23:15;18.60;1.00
14057;DHT22;7103;54.300;10.180;2022-07-26T17:25:46;18.60;1.00
14057;DHT22;7103;54.300;10.180;2022-07-26T17:28:13;18.50;1.00
14057;DHT22;7103;54.300;10.180;2022-07-26T17:30:40;18.50;1.00
14057;DHT22;7103;54.300;10.180;2022-07-26T17:33:07;18.40;1.00
14057;DHT22;7103;54.300;10.180;2022-07-26T17:35:35;18.50;1.00
14057;DHT22;7103;54.300;10.180;2022-07-26T17:38:03;18.50;1.00
14057;DHT22;7103;54.300;10.180;2022-07-26T17:40:31;18.50;1.00
14057;DHT22;7103;54.300;10.180;2022-07-26T17:42:59;18.40;1.00
14057;DHT22;7103;54.300;10.180;2022-07-26T17:45:26;18.30;1.00
14057;DHT22;7103;54.300;10.180;2022-07-26T17:47:53;18.20;1.00
14057;DHT22;7103;54.300;10.180;2022-07-26T17:50:20;18.30;1.00
14057;DHT22;7103;54.300;10.180;2022-07-26T17:53:04;18.40;1.00
14057;DHT22;7103;54.300;10.180;2022-07-26T17:55:31;18.50;1.00
14057;DHT22;7103;54.300;10.180;2022-07-26T17:57:59;18.50;1.00
14057;DHT22;7103;54.300;10.180;2022-07-26T18:00:26;18.40;1.00
14057;DHT22;7103;54.300;10.180;2022-07-26T18:02:55;18.40;1.00
14057;DHT22;7103;54.300;10.180;2022-07-26T18:05:25;18.20;1.00
14057;DHT22;7103;54.300;10.180;2022-07-26T18:08:01;18.10;1.00
14057;DHT22;7103;54.300;10.180;2022-07-26T18:10:28;18.00;1.00
14057;DHT22;7103;54.300;10.180;2022-07-26T18:12:55;18.00;1.00
14057;DHT22;7103;54.300;10.180;2022-07-26T18:15:22;18.00;1.00
14057;DHT22;7103;54.300;10.180;2022-07-26T18:17:49;18.00;1.00
14057;DHT22;7103;54.300;10.180;2022-07-26T18:20:16;17.90;1.00
14057;DHT22;7103;54.300;10.180;2022-07-26T18:22:43;17.80;1.00
14057;DHT22;7103;54.300;10.180;2022-07-26T18:25:15;17.70;1.00
14057;DHT22;7103;54.300;10.180;2022-07-26T18:27:43;17.70;1.00
14057;DHT22;7103;54.300;10.180;2022-07-26T18:30:10;17.70;1.00
14057;DHT22;7103;54.300;10.180;2022-07-26T18:32:37;17.70;1.00
14057;DHT22;7103;54.300;10.180;2022-07-26T18:35:04;17.70;1.00
14057;DHT22;7103;54.300;10.180;2022-07-26T18:37:31;17.50;1.00
14057;DHT22;7103;54.300;10.180;2022-07-26T18:39:58;17.40;1.00
14057;DHT22;7103;54.300;10.180;2022-07-26T18:42:25;17.30;1.00
14057;DHT22;7103;54.300;10.180;2022-07-26T18:44:52;17.30;1.00
14057;DHT22;7103;54.300;10.180;2022-07-26T18:47:19;17.30;1.00
14057;DHT22;7103;54.300;10.180;2022-07-26T18:49:46;17.20;1.00
14057;DHT22;7103;54.300;10.180;2022-07-26T18:52:15;17.30;1.00
14057;DHT22;7103;54.300;10.180;2022-07-26T18:54:54;17.30;1.00
14057;DHT22;7103;54.300;10.180;2022-07-26T18:57:21;17.20;1.00
14057;DHT22;7103;54.300;10.180;2022-07-26T18:59:48;17.10;1.00
14057;DHT22;7103;54.300;10.180;2022-07-26T19:02:15;16.90;1.00
14057;DHT22;7103;54.300;10.180;2022-07-26T19:04:42;16.90;1.00
14057;DHT22;7103;54.300;10.180;2022-07-26T19:07:09;16.90;1.00
14057;DHT22;7103;54.300;10.180;2022-07-26T19:09:36;16.90;1.00
14057;DHT22;7103;54.300;10.180;2022-07-26T19:12:03;16.70;1.00
14057;DHT22;7103;54.300;10.180;2022-07-26T19:14:30;16.70;1.00
14057;DHT22;7103;54.300;10.180;2022-07-26T19:16:57;16.70;1.00
14057;DHT22;7103;54.300;10.180;2022-07-26T19:19:24;16.60;1.00
14057;DHT22;7103;54.300;10.180;2022-07-26T19:21:51;16.60;1.00
14057;DHT22;7103;54.300;10.180;2022-07-26T19:24:18;16.60;1.00
14057;DHT22;7103;54.300;10.180;2022-07-26T19:26:45;16.60;1.00
14057;DHT22;7103;54.300;10.180;2022-07-26T19:29:12;16.60;1.00
14057;DHT22;7103;54.300;10.180;2022-07-26T19:31:40;16.60;1.00
14057;DHT22;7103;54.300;10.180;2022-07-26T19:34:12;16.70;1.00
14057;DHT22;7103;54.300;10.180;2022-07-26T19:36:39;16.70;1.00
14057;DHT22;7103;54.300;10.180;2022-07-26T19:39:07;16.70;1.00
14057;DHT22;7103;54.300;10.180;2022-07-26T19:41:34;16.80;1.00
14057;DHT22;7103;54.300;10.180;2022-07-26T19:44:01;16.70;1.00
14057;DHT22;7103;54.300;10.180;2022-07-26T19:46:29;16.60;1.00
14057;DHT22;7103;54.300;10.180;2022-07-26T19:48:56;16.50;1.00
14057;DHT22;7103;54.300;10.180;2022-07-26T19:51:23;16.60;1.00
14057;DHT22;7103;54.300;10.180;2022-07-26T19:53:50;16.70;1.00
14057;DHT22;7103;54.300;10.180;2022-07-26T19:56:17;16.60;1.00
14057;DHT22;7103;54.300;10.180;2022-07-26T19:58:44;16.70;1.00
14057;DHT22;7103;54.300;10.180;2022-07-26T20:01:12;16.60;1.00
14057;DHT22;7103;54.300;10.180;2022-07-26T20:03:39;16.60;1.00
14057;DHT22;7103;54.300;10.180;2022-07-26T20:06:06;16.60;1.00
14057;DHT22;7103;54.300;10.180;2022-07-26T20:08:33;16.50;1.00
14057;DHT22;7103;54.300;10.180;2022-07-26T20:11:00;16.50;1.00
14057;DHT22;7103;54.300;10.180;2022-07-26T20:13:28;16.40;1.00
14057;DHT22;7103;54.300;10.180;2022-07-26T20:15:55;16.30;1.00
14057;DHT22;7103;54.300;10.180;2022-07-26T20:18:22;16.10;1.00
14057;DHT22;7103;54.300;10.180;2022-07-26T20:20:51;16.00;1.00
14057;DHT22;7103;54.300;10.180;2022-07-26T20:23:19;16.00;1.00
14057;DHT22;7103;54.300;10.180;2022-07-26T20:25:47;16.10;1.00
14057;DHT22;7103;54.300;10.180;2022-07-26T20:28:14;16.00;1.00
14057;DHT22;7103;54.300;10.180;2022-07-26T20:30:42;16.00;1.00
14057;DHT22;7103;54.300;10.180;2022-07-26T20:33:09;16.00;1.00
14057;DHT22;7103;54.300;10.180;2022-07-26T20:35:36;16.00;1.00
14057;DHT22;7103;54.300;10.180;2022-07-26T20:38:03;16.00;1.00
14057;DHT22;7103;54.300;10.180;2022-07-26T20:40:30;16.00;1.00